Time;durP1;ratioP1;P1;durP2;ratioP2;P2;SDS_P1;SDS_P2;PMS_P1;PMS_P2;Temp;Humidity;BMP_temperature;BMP_pressure;BME280_temperature;BME280_humidity;BME280_pressure;Samples;Min_cycle;Max_cycle;Signal;HPM_P1;HPM_P2
2023/11/02 00:00:09;;;;;;;6.55;4.07;;;13.70;99.90;;;;;;5033657;28;20040;-77
2023/11/02 00:02:42;;;;;;;8.27;4.25;;;13.60;99.90;;;;;;5034128;28;20034;-76
2023/11/02 00:05:44;;;;;;;7.40;4.20;;;13.60;99.90;;;;;;5034143;28;20021;-76
2023/11/02 00:08:13;;;;;;;7.10;4.10;;;13.60;99.90;;;;;;5033662;28;20025;-76
2023/11/02 00:10:39;;;;;;;9.77;4.40;;;13.60;99.90;;;;;;5033865;28;20025;-76
2023/11/02 00:13:05;;;;;;;5.40;3.85;;;13.50;99.90;;;;;;5032426;28;20025;-76
2023/11/02 00:15:31;;;;;;;7.35;3.83;;;13.60;99.90;;;;;;5033810;28;20022;-76
2023/11/02 00:18:01;;;;;;;6.32;3.75;;;13.60;99.90;;;;;;5033397;28;20381;-76
2023/11/02 00:20:32;;;;;;;8.02;3.80;;;13.50;99.90;;;;;;5032848;28;20413;-76
2023/11/02 00:23:01;;;;;;;8.18;3.78;;;13.50;99.90;;;;;;5033225;28;20030;-76
2023/11/02 00:25:57;;;;;;;8.80;3.72;;;13.50;99.90;;;;;;5032755;28;20033;-76
2023/11/02 00:28:31;;;;;;;11.35;3.78;;;13.50;99.90;;;;;;5032315;28;20456;-76
2023/11/02 00:30:57;;;;;;;7.40;3.30;;;13.40;99.90;;;;;;5031972;28;20022;-76
2023/11/02 00:33:23;;;;;;;6.47;3.67;;;13.40;99.90;;;;;;5033344;28;20104;-76
2023/11/02 00:35:55;;;;;;;7.88;3.45;;;13.40;99.90;;;;;;5033506;28;20032;-76
2023/11/02 00:38:29;;;;;;;9.32;3.95;;;13.40;99.90;;;;;;5053427;28;20111;-76
2023/11/02 00:40:57;;;;;;;4.97;3.47;;;13.40;99.90;;;;;;5053438;28;20350;-76
2023/11/02 00:43:23;;;;;;;6.72;3.50;;;13.30;99.90;;;;;;5053113;28;20032;-76
2023/11/02 00:45:51;;;;;;;8.15;3.50;;;13.40;99.90;;;;;;5053240;28;20028;-76
2023/11/02 00:48:32;;;;;;;9.23;3.90;;;13.30;99.90;;;;;;5053535;28;20051;-76
2023/11/02 00:51:26;;;;;;;6.07;3.25;;;13.30;99.90;;;;;;5053602;28;20362;-76
2023/11/02 00:54:05;;;;;;;7.93;3.60;;;13.30;99.90;;;;;;5053149;28;20419;-76
2023/11/02 00:56:36;;;;;;;7.85;3.78;;;13.20;99.90;;;;;;5053240;28;20051;-76
2023/11/02 00:59:05;;;;;;;8.88;3.33;;;13.20;99.90;;;;;;5052857;28;20103;-76
2023/11/02 01:01:34;;;;;;;7.95;3.40;;;13.20;99.90;;;;;;5053044;28;20392;-75
2023/11/02 01:04:44;;;;;;;4.82;3.53;;;13.20;99.90;;;;;;5053052;28;20024;-76
2023/11/02 01:07:16;;;;;;;9.10;3.40;;;13.20;99.90;;;;;;5052919;28;20419;-76
2023/11/02 01:09:51;;;;;;;;;;;13.20;99.90;;;;;;5053325;28;20025;-76
2023/11/02 01:12:39;;;;;;;7.05;3.25;;;13.20;99.90;;;;;;5052848;28;20245;-76
2023/11/02 01:15:11;;;;;;;10.07;3.78;;;13.20;99.90;;;;;;5052728;28;20075;-76
2023/11/02 01:17:43;;;;;;;4.90;3.33;;;13.20;99.90;;;;;;5052825;28;20025;-76
2023/11/02 01:20:12;;;;;;;9.05;3.67;;;13.10;99.90;;;;;;5052912;28;20083;-76
2023/11/02 01:22:44;;;;;;;8.43;3.13;;;13.10;99.90;;;;;;5052546;28;20080;-76
2023/11/02 01:25:12;;;;;;;8.30;2.92;;;13.10;99.90;;;;;;5052778;28;20389;-76
2023/11/02 01:27:38;;;;;;;7.30;2.92;;;13.10;99.90;;;;;;5052678;28;20481;-76
2023/11/02 01:30:37;;;;;;;7.90;3.28;;;13.10;99.90;;;;;;5052612;28;20074;-76
2023/11/02 01:33:37;;;;;;;7.88;2.70;;;13.10;99.90;;;;;;5047485;28;20409;-76
2023/11/02 01:36:05;;;;;;;10.90;2.75;;;13.10;99.90;;;;;;5056623;28;20028;-76
2023/11/02 01:38:32;;;;;;;6.05;3.10;;;13.10;99.90;;;;;;5056930;28;20469;-77
2023/11/02 01:41:32;;;;;;;8.95;2.97;;;13.20;99.90;;;;;;5056483;28;20044;-76
2023/11/02 01:44:10;;;;;;;8.73;3.45;;;13.20;99.90;;;;;;5038265;28;20060;-77
2023/11/02 01:46:57;;;;;;;11.00;3.20;;;13.20;99.90;;;;;;5056543;28;20028;-76
2023/11/02 01:49:35;;;;;;;7.35;3.30;;;13.10;99.90;;;;;;5056669;28;20028;-76
2023/11/02 01:52:20;;;;;;;7.45;2.80;;;13.10;99.90;;;;;;5056631;28;20048;-76
2023/11/02 01:55:31;;;;;;;9.52;3.20;;;13.20;99.90;;;;;;5056446;28;20040;-76
2023/11/02 01:58:25;;;;;;;5.00;2.70;;;13.10;99.90;;;;;;5046214;28;20040;-76
2023/11/02 02:01:06;;;;;;;6.80;3.10;;;13.10;99.90;;;;;;5053495;28;20710;-76
2023/11/02 02:03:56;;;;;;;9.68;2.65;;;13.10;99.90;;;;;;5053573;28;20044;-76
2023/11/02 02:06:45;;;;;;;7.18;2.28;;;13.10;99.90;;;;;;5055815;28;20072;-76
2023/11/02 02:09:37;;;;;;;8.40;2.42;;;13.10;99.90;;;;;;5018217;28;20111;-76
2023/11/02 02:12:20;;;;;;;7.43;2.27;;;13.20;99.90;;;;;;5052236;28;20068;-76
2023/11/02 02:15:10;;;;;;;5.47;2.15;;;13.20;99.90;;;;;;5055463;28;20195;-77
2023/11/02 02:17:48;;;;;;;6.55;2.35;;;13.20;99.90;;;;;;5055788;28;20045;-76
2023/11/02 02:20:30;;;;;;;6.55;2.30;;;13.20;99.90;;;;;;5055696;28;20033;-76
2023/11/02 02:23:16;;;;;;;8.38;1.88;;;13.20;99.90;;;;;;5055426;28;20029;-76
2023/11/02 02:25:50;;;;;;;4.80;1.77;;;13.20;99.90;;;;;;5014659;28;20029;-76
2023/11/02 02:28:53;;;;;;;7.00;1.75;;;13.20;99.90;;;;;;5045449;28;20365;-76
2023/11/02 02:31:58;;;;;;;6.60;1.77;;;13.20;99.90;;;;;;5035380;28;20104;-76
2023/11/02 02:34:45;;;;;;;7.60;2.20;;;13.20;99.90;;;;;;5035479;28;20053;-76
2023/11/02 02:37:21;;;;;;;4.28;1.50;;;13.20;99.90;;;;;;5035533;28;20037;-76
2023/11/02 02:40:06;;;;;;;4.65;1.45;;;13.20;99.90;;;;;;5017621;28;20036;-75
2023/11/02 02:42:37;;;;;;;5.05;1.70;;;13.30;99.90;;;;;;5034680;28;20045;-76
2023/11/02 02:45:09;;;;;;;6.53;1.58;;;13.20;99.90;;;;;;5035130;28;20034;-76
2023/11/02 02:47:38;;;;;;;7.60;2.13;;;13.30;99.90;;;;;;5035480;28;20083;-76
2023/11/02 02:50:06;;;;;;;4.03;1.70;;;13.30;99.90;;;;;;5035745;28;20025;-76
2023/11/02 02:52:36;;;;;;;5.97;1.65;;;13.30;99.90;;;;;;5017501;28;20087;-76
2023/11/02 02:55:02;;;;;;;7.65;1.92;;;13.30;99.90;;;;;;5035340;28;20029;-77
2023/11/02 02:57:33;;;;;;;9.32;2.47;;;13.20;99.90;;;;;;5017750;28;20377;-76
2023/11/02 03:00:01;;;;;;;4.13;1.55;;;13.20;99.90;;;;;;5035464;28;20370;-76
2023/11/02 03:02:34;;;;;;;5.65;1.80;;;13.30;99.90;;;;;;5017509;28;20049;-76
2023/11/02 03:05:01;;;;;;;9.05;2.05;;;13.20;99.90;;;;;;5035160;28;20025;-76
2023/11/02 03:07:31;;;;;;;4.45;1.80;;;13.20;99.90;;;;;;5035175;28;20390;-76
2023/11/02 03:10:08;;;;;;;7.28;2.25;;;13.30;99.90;;;;;;5034715;28;20416;-76
2023/11/02 03:12:39;;;;;;;5.63;1.83;;;13.20;99.90;;;;;;5017112;28;20052;-76
2023/11/02 03:15:07;;;;;;;6.22;2.00;;;13.20;99.90;;;;;;5034857;28;20036;-76
2023/11/02 03:17:59;;;;;;;3.38;1.60;;;13.20;99.90;;;;;;5035038;28;20105;-76
2023/11/02 03:20:26;;;;;;;7.15;1.83;;;13.20;99.90;;;;;;5034760;28;20419;-76
2023/11/02 03:22:55;;;;;;;5.28;1.80;;;13.30;99.90;;;;;;5034971;28;20034;-76
2023/11/02 03:25:53;;;;;;;7.45;1.67;;;13.30;99.90;;;;;;5034797;28;20117;-76
2023/11/02 03:28:50;;;;;;;7.82;1.90;;;13.30;99.90;;;;;;5034375;28;20073;-77
2023/11/02 03:31:40;;;;;;;10.80;2.47;;;13.30;99.90;;;;;;5034645;28;20029;-76
2023/11/02 03:35:00;;;;;;;6.03;2.38;;;13.30;99.90;;;;;;5034350;28;20456;-76
2023/11/02 03:37:32;;;;;;;9.18;2.17;;;13.30;99.90;;;;;;4954556;28;20054;-77
2023/11/02 03:40:23;;;;;;;6.07;2.03;;;13.30;99.90;;;;;;4968577;28;20405;-76
2023/11/02 03:42:52;;;;;;;3.05;2.15;;;13.30;99.90;;;;;;5034163;28;20481;-76
2023/11/02 03:45:26;;;;;;;4.93;2.20;;;13.30;99.90;;;;;;5034212;28;20072;-77
2023/11/02 03:48:11;;;;;;;5.13;2.13;;;13.30;99.90;;;;;;5034186;28;20385;-76
2023/11/02 03:50:52;;;;;;;9.60;2.28;;;13.30;99.90;;;;;;5034190;28;20377;-76
2023/11/02 03:53:27;;;;;;;4.32;2.17;;;13.30;99.90;;;;;;5034313;28;20032;-76
2023/11/02 03:56:10;;;;;;;6.10;2.30;;;13.30;99.90;;;;;;5033938;28;20034;-76
2023/11/02 03:59:11;;;;;;;11.30;2.30;;;13.30;99.90;;;;;;5034210;28;20115;-76
2023/11/02 04:01:56;;;;;;;6.20;2.22;;;13.30;99.90;;;;;;5033811;28;20116;-76
2023/11/02 04:05:13;;;;;;;6.00;1.95;;;13.30;99.90;;;;;;5033877;28;20495;-77
2023/11/02 04:08:05;;;;;;;14.15;3.25;;;13.40;99.90;;;;;;4953696;28;20529;-76
2023/11/02 04:10:34;;;;;;;23.13;9.47;;;13.40;99.90;;;;;;4953386;28;20425;-75
2023/11/02 04:13:08;;;;;;;10.00;4.40;;;13.40;99.90;;;;;;5014172;28;20095;-76
2023/11/02 04:15:37;;;;;;;10.77;4.63;;;13.40;99.90;;;;;;5033709;28;20359;-75
2023/11/02 04:18:03;;;;;;;9.88;3.90;;;13.40;99.90;;;;;;5033581;28;20033;-77
2023/11/02 04:20:32;;;;;;;8.52;3.40;;;13.40;99.90;;;;;;5033554;28;20103;-76
2023/11/02 04:22:58;;;;;;;9.15;2.88;;;13.40;99.90;;;;;;5033578;28;20084;-76
2023/11/02 04:25:24;;;;;;;7.40;3.30;;;13.40;99.90;;;;;;5033675;28;20018;-76
2023/11/02 04:27:57;;;;;;;5.20;2.75;;;13.40;99.90;;;;;;5033490;28;20374;-76
2023/11/02 04:30:24;;;;;;;;;;;13.40;99.90;;;;;;5016106;28;20529;-76
2023/11/02 04:32:59;;;;;;;11.05;2.60;;;13.40;99.90;;;;;;5032257;28;19909;-76
2023/11/02 04:35:28;;;;;;;7.03;2.90;;;13.40;99.90;;;;;;5013820;28;20034;-76
2023/11/02 04:38:08;;;;;;;7.60;2.83;;;13.40;99.90;;;;;;5013749;28;20018;-76
2023/11/02 04:40:35;;;;;;;8.75;2.70;;;13.40;99.90;;;;;;5013467;28;20378;-76
2023/11/02 04:43:04;;;;;;;11.77;3.35;;;13.40;99.90;;;;;;5013794;28;20437;-76
2023/11/02 04:45:31;;;;;;;8.20;2.60;;;13.40;99.90;;;;;;5012931;28;20437;-76
2023/11/02 04:48:03;;;;;;;8.07;2.47;;;13.40;99.90;;;;;;5013268;28;20057;-75
2023/11/02 04:50:29;;;;;;;5.82;2.60;;;13.30;99.90;;;;;;5013277;28;20034;-76
2023/11/02 04:52:55;;;;;;;8.82;3.45;;;13.40;99.90;;;;;;5013622;28;20014;-76
2023/11/02 04:55:24;;;;;;;7.88;3.05;;;13.30;99.90;;;;;;5013231;28;20029;-76
2023/11/02 04:57:49;;;;;;;8.98;2.72;;;13.30;99.90;;;;;;5013387;28;20385;-77
2023/11/02 05:00:21;;;;;;;6.32;2.13;;;13.30;99.90;;;;;;5013552;28;20036;-76
2023/11/02 05:02:49;;;;;;;6.47;2.53;;;13.30;99.90;;;;;;5013138;28;20037;-75
2023/11/02 05:05:28;;;;;;;8.15;3.33;;;13.30;99.90;;;;;;5013109;28;20026;-77
2023/11/02 05:07:54;;;;;;;8.38;2.88;;;13.30;99.90;;;;;;5012540;28;20022;-75
2023/11/02 05:10:26;;;;;;;11.80;3.00;;;13.30;99.90;;;;;;4995588;28;20117;-76
2023/11/02 05:12:52;;;;;;;9.05;2.50;;;13.30;99.90;;;;;;5013306;28;20421;-77
2023/11/02 05:15:18;;;;;;;8.95;2.85;;;13.40;99.90;;;;;;5012826;28;20026;-76
2023/11/02 05:17:44;;;;;;;7.68;2.95;;;13.40;99.90;;;;;;5012898;28;20034;-76
2023/11/02 05:20:13;;;;;;;10.75;2.72;;;13.40;99.90;;;;;;5013126;28;20113;-76
2023/11/02 05:22:39;;;;;;;8.02;2.58;;;13.40;99.90;;;;;;5013024;28;20367;-77
2023/11/02 05:25:06;;;;;;;9.55;2.63;;;13.40;99.90;;;;;;5012839;28;20033;-76
2023/11/02 05:27:32;;;;;;;11.32;3.40;;;13.40;99.90;;;;;;5012925;28;20053;-76
2023/11/02 05:30:01;;;;;;;7.53;2.50;;;13.40;99.90;;;;;;5012949;28;20109;-76
2023/11/02 05:32:30;;;;;;;9.38;3.00;;;13.40;99.90;;;;;;5012949;28;20386;-76
2023/11/02 05:34:56;;;;;;;9.85;2.28;;;13.40;99.90;;;;;;5012575;28;20049;-76
2023/11/02 05:37:22;;;;;;;9.40;3.10;;;13.40;99.90;;;;;;5012722;28;20034;-76
2023/11/02 05:39:47;;;;;;;6.22;2.67;;;13.40;99.90;;;;;;5012711;28;20030;-76
2023/11/02 05:42:15;;;;;;;14.05;2.50;;;13.40;99.90;;;;;;5012950;28;20097;-76
2023/11/02 05:44:41;;;;;;;7.97;2.92;;;13.40;99.90;;;;;;5019093;28;20041;-76
2023/11/02 05:47:08;;;;;;;6.25;2.53;;;13.40;99.90;;;;;;5032398;28;20049;-76
2023/11/02 05:49:33;;;;;;;10.55;2.78;;;13.40;99.90;;;;;;5032529;28;20081;-76
2023/11/02 05:52:00;;;;;;;8.05;2.83;;;13.40;99.90;;;;;;5032200;28;20017;-75
2023/11/02 05:54:30;;;;;;;6.45;2.40;;;13.40;99.90;;;;;;5032553;28;20430;-76
2023/11/02 05:56:56;;;;;;;5.78;2.40;;;13.40;99.90;;;;;;5032526;28;20380;-76
2023/11/02 05:59:21;;;;;;;11.25;3.60;;;13.40;99.90;;;;;;5032716;28;20381;-75
2023/11/02 06:01:47;;;;;;;8.35;2.80;;;13.40;99.90;;;;;;5032415;28;20486;-76
2023/11/02 06:04:13;;;;;;;7.10;2.60;;;13.40;99.90;;;;;;5032386;28;20033;-76
2023/11/02 06:06:39;;;;;;;6.93;2.83;;;13.40;99.90;;;;;;5032405;28;20037;-76
2023/11/02 06:09:05;;;;;;;9.10;3.35;;;13.40;99.90;;;;;;5031441;28;20534;-76
2023/11/02 06:11:33;;;;;;;6.47;2.70;;;13.40;99.90;;;;;;5032319;28;20043;-76
2023/11/02 06:14:00;;;;;;;10.40;3.05;;;13.40;99.90;;;;;;5032316;28;20026;-77
2023/11/02 06:16:26;;;;;;;7.45;2.83;;;13.30;99.90;;;;;;5032066;28;20511;-76
2023/11/02 06:18:52;;;;;;;6.18;2.92;;;13.40;99.90;;;;;;5032219;28;20382;-76
2023/11/02 06:21:18;;;;;;;13.35;3.17;;;13.40;99.90;;;;;;5035752;28;20529;-76
2023/11/02 06:23:44;;;;;;;11.82;2.95;;;13.40;99.90;;;;;;5036148;28;20041;-76
2023/11/02 06:26:10;;;;;;;7.63;3.25;;;13.40;99.90;;;;;;5035866;28;20355;-76
2023/11/02 06:28:42;;;;;;;6.72;2.95;;;13.50;99.90;;;;;;5035704;28;20037;-76
2023/11/02 06:31:31;;;;;;;8.88;3.20;;;13.40;99.90;;;;;;5035832;28;20441;-76
2023/11/02 06:34:18;;;;;;;7.22;3.50;;;13.50;99.90;;;;;;5027629;28;20157;-77
2023/11/02 06:36:44;;;;;;;9.25;3.60;;;13.40;99.90;;;;;;5055739;28;20075;-76
2023/11/02 06:39:10;;;;;;;8.95;3.53;;;13.40;99.90;;;;;;5056010;28;20090;-76
2023/11/02 06:41:40;;;;;;;8.02;3.22;;;13.40;99.90;;;;;;5055831;28;20029;-76
2023/11/02 06:44:05;;;;;;;12.10;3.42;;;13.50;99.90;;;;;;5055566;28;20064;-76
2023/11/02 06:46:31;;;;;;;6.53;3.08;;;13.50;99.90;;;;;;5055990;28;20400;-76
2023/11/02 06:49:03;;;;;;;9.80;3.40;;;13.50;99.90;;;;;;5055495;28;20385;-76
2023/11/02 06:51:30;;;;;;;12.40;3.72;;;13.50;99.90;;;;;;5055126;28;20025;-76
2023/11/02 06:53:56;;;;;;;13.63;4.35;;;13.50;99.90;;;;;;5037809;28;20031;-76
2023/11/02 06:56:25;;;;;;;14.23;3.80;;;13.50;99.90;;;;;;5055351;28;20021;-76
2023/11/02 06:58:54;;;;;;;11.43;4.38;;;13.50;99.90;;;;;;5055084;28;20385;-77
2023/11/02 07:01:20;;;;;;;11.57;4.50;;;13.50;99.90;;;;;;5055052;28;20037;-76
2023/11/02 07:03:49;;;;;;;17.17;4.18;;;13.50;99.90;;;;;;5055032;28;20024;-75
2023/11/02 07:06:15;;;;;;;13.77;4.55;;;13.50;99.90;;;;;;5055183;28;20024;-76
2023/11/02 07:08:44;;;;;;;13.07;4.40;;;13.50;99.90;;;;;;5055015;28;20358;-76
2023/11/02 07:11:10;;;;;;;14.45;4.35;;;13.50;99.90;;;;;;5054748;28;20308;-76
2023/11/02 07:13:38;;;;;;;13.20;4.30;;;13.50;99.90;;;;;;5055128;28;20049;-76
2023/11/02 07:16:05;;;;;;;14.65;4.72;;;13.50;99.90;;;;;;5054989;28;20064;-77
2023/11/02 07:18:33;;;;;;;15.73;4.88;;;13.50;99.90;;;;;;5055206;28;20056;-76
2023/11/02 07:20:59;;;;;;;13.45;4.88;;;13.50;99.90;;;;;;5055246;28;20029;-76
2023/11/02 07:23:25;;;;;;;13.10;4.43;;;13.50;99.90;;;;;;5055048;28;20092;-77
2023/11/02 07:25:51;;;;;;;11.27;4.43;;;13.50;99.90;;;;;;5054105;28;20105;-75
2023/11/02 07:28:17;;;;;;;11.57;4.40;;;13.40;99.90;;;;;;5054605;28;20120;-76
2023/11/02 07:30:43;;;;;;;9.30;4.20;;;13.40;99.90;;;;;;5054435;28;20029;-76
2023/11/02 07:33:09;;;;;;;13.05;4.40;;;13.40;99.90;;;;;;5054335;28;20572;-76
2023/11/02 07:35:36;;;;;;;10.57;4.15;;;13.40;99.90;;;;;;5055183;28;20104;-76
2023/11/02 07:38:02;;;;;;;13.30;3.95;;;13.40;99.90;;;;;;5054981;28;20028;-76
2023/11/02 07:40:30;;;;;;;14.07;4.00;;;13.40;99.90;;;;;;5054686;28;20070;-76
2023/11/02 07:42:56;;;;;;;11.98;4.10;;;13.50;99.90;;;;;;5054572;28;20029;-77
2023/11/02 07:45:40;;;;;;;13.45;4.97;;;13.40;99.90;;;;;;5055145;28;20028;-76
2023/11/02 07:48:05;;;;;;;12.25;4.57;;;13.50;99.90;;;;;;5054875;28;20057;-76
2023/11/02 07:50:31;;;;;;;10.73;4.70;;;13.50;99.90;;;;;;5054832;28;20055;-76
2023/11/02 07:52:57;;;;;;;10.85;3.88;;;13.40;99.90;;;;;;5036845;28;20029;-76
2023/11/02 07:55:24;;;;;;;9.52;3.55;;;13.40;99.90;;;;;;5054638;28;20377;-76
2023/11/02 07:57:49;;;;;;;11.48;3.08;;;13.40;99.90;;;;;;5054676;28;20083;-76
2023/11/02 08:00:16;;;;;;;11.25;3.00;;;13.40;99.90;;;;;;5054342;28;20021;-76
2023/11/02 08:02:42;;;;;;;8.35;2.92;;;13.40;99.90;;;;;;5054278;28;20045;-76
2023/11/02 08:05:09;;;;;;;9.73;2.63;;;13.40;99.90;;;;;;5054348;28;20036;-76
2023/11/02 08:07:35;;;;;;;8.02;2.67;;;13.50;99.90;;;;;;5053993;28;20043;-77
2023/11/02 08:10:01;;;;;;;7.90;2.78;;;13.50;99.90;;;;;;5054356;28;20103;-75
2023/11/02 08:12:28;;;;;;;6.85;2.60;;;13.50;99.90;;;;;;5053442;28;20472;-76
2023/11/02 08:14:53;;;;;;;9.63;2.80;;;13.60;99.90;;;;;;5053917;28;20408;-76
2023/11/02 08:17:23;;;;;;;10.63;2.63;;;13.60;99.90;;;;;;5054025;28;20090;-76
2023/11/02 08:19:49;;;;;;;9.23;2.50;;;13.60;99.90;;;;;;5053778;28;20051;-76
2023/11/02 08:22:14;;;;;;;5.75;2.25;;;13.70;99.90;;;;;;5053731;28;20362;-76
2023/11/02 08:24:41;;;;;;;6.85;2.45;;;13.70;99.90;;;;;;5035654;28;20104;-76
2023/11/02 08:27:07;;;;;;;7.75;2.85;;;13.70;99.90;;;;;;5052585;28;20059;-76
2023/11/02 08:29:32;;;;;;;13.02;3.20;;;13.70;99.90;;;;;;5053189;28;20013;-76
2023/11/02 08:31:59;;;;;;;10.88;2.92;;;13.70;99.90;;;;;;5053773;28;20025;-76
2023/11/02 08:34:25;;;;;;;9.48;3.10;;;13.80;99.90;;;;;;5041717;28;20041;-76
2023/11/02 08:36:50;;;;;;;7.93;2.70;;;13.80;99.90;;;;;;5033707;28;20032;-76
2023/11/02 08:39:21;;;;;;;7.55;2.53;;;13.80;99.90;;;;;;5035576;28;20017;-75
2023/11/02 08:41:48;;;;;;;7.95;3.60;;;13.90;99.90;;;;;;5053282;28;20032;-75
2023/11/02 08:44:14;;;;;;;9.30;3.08;;;13.80;99.90;;;;;;5053666;28;20052;-76
2023/11/02 08:46:40;;;;;;;8.52;3.08;;;13.90;99.90;;;;;;5053541;28;20060;-75
2023/11/02 08:49:08;;;;;;;8.95;3.28;;;13.90;99.90;;;;;;5053475;28;20024;-76
2023/11/02 08:51:38;;;;;;;10.38;3.08;;;13.90;99.90;;;;;;5053536;28;20441;-76
2023/11/02 08:54:04;;;;;;;12.65;3.72;;;14.00;99.90;;;;;;5035509;28;20024;-76
2023/11/02 08:56:30;;;;;;;8.27;3.53;;;14.00;99.90;;;;;;5053268;28;20385;-76
2023/11/02 08:58:56;;;;;;;9.20;3.90;;;14.00;99.90;;;;;;5053333;28;20025;-76
2023/11/02 09:01:26;;;;;;;7.50;4.00;;;14.10;99.90;;;;;;5053197;28;20035;-76
2023/11/02 09:03:57;;;;;;;10.77;3.95;;;14.10;99.90;;;;;;5036054;28;20039;-76
2023/11/02 09:06:26;;;;;;;12.75;4.03;;;14.00;99.90;;;;;;5053281;28;20021;-76
2023/11/02 09:09:04;;;;;;;10.80;3.53;;;14.10;99.90;;;;;;5053054;28;20021;-76
2023/11/02 09:11:30;;;;;;;10.52;3.70;;;14.10;99.90;;;;;;5052903;28;20031;-75
2023/11/02 09:13:56;;;;;;;14.27;4.57;;;14.20;99.90;;;;;;5052891;28;20017;-76
2023/11/02 09:16:22;;;;;;;12.32;4.55;;;14.20;99.90;;;;;;5053052;28;20052;-76
2023/11/02 09:18:51;;;;;;;13.75;4.78;;;14.10;99.90;;;;;;5053089;28;20510;-75
2023/11/02 09:21:25;;;;;;;8.15;3.83;;;14.20;99.90;;;;;;5053047;28;20024;-76
2023/11/02 09:23:51;;;;;;;10.75;3.65;;;14.20;99.90;;;;;;5053142;28;20108;-76
2023/11/02 09:26:20;;;;;;;10.13;4.05;;;14.20;99.90;;;;;;5052955;28;20538;-76
2023/11/02 09:28:50;;;;;;;10.93;4.55;;;14.20;99.90;;;;;;5052804;28;20455;-75
2023/11/02 09:31:17;;;;;;;9.55;4.05;;;14.20;99.90;;;;;;5052771;28;20419;-76
2023/11/02 09:33:43;;;;;;;9.07;4.30;;;14.20;99.90;;;;;;5052688;28;20045;-76
2023/11/02 09:36:09;;;;;;;8.60;4.00;;;14.20;99.90;;;;;;5052957;28;20067;-76
2023/11/02 09:38:35;;;;;;;13.48;4.28;;;14.30;99.90;;;;;;5052882;28;20027;-76
2023/11/02 09:41:01;;;;;;;7.18;3.40;;;14.30;99.90;;;;;;5052441;28;20021;-76
2023/11/02 09:43:27;;;;;;;9.15;4.05;;;14.30;99.90;;;;;;5051110;28;20041;-76
2023/11/02 09:45:56;;;;;;;11.88;3.90;;;14.30;99.90;;;;;;5051544;28;20386;-77
2023/11/02 09:48:22;;;;;;;10.40;4.13;;;14.30;99.90;;;;;;5011749;28;20156;-76
2023/11/02 09:50:54;;;;;;;9.80;3.95;;;14.30;99.90;;;;;;5031901;28;20428;-76
2023/11/02 09:53:21;;;;;;;8.80;3.95;;;14.30;99.90;;;;;;5031937;28;20026;-77
2023/11/02 09:55:49;;;;;;;12.40;4.38;;;14.40;99.90;;;;;;5033216;28;20119;-77
2023/11/02 09:58:17;;;;;;;9.35;3.92;;;14.30;99.90;;;;;;5056033;28;20021;-77
2023/11/02 10:00:45;;;;;;;12.60;4.18;;;14.40;99.90;;;;;;5055905;28;20029;-77
2023/11/02 10:03:12;;;;;;;9.45;4.35;;;14.40;99.90;;;;;;5055225;28;20036;-77
2023/11/02 10:05:38;;;;;;;13.30;4.20;;;14.40;99.90;;;;;;5056139;28;20385;-77
2023/11/02 10:08:05;;;;;;;11.20;3.70;;;14.40;99.90;;;;;;5038018;28;20058;-76
2023/11/02 10:10:33;;;;;;;9.10;3.50;;;14.40;99.90;;;;;;5055518;28;20036;-78
2023/11/02 10:12:59;;;;;;;11.43;4.38;;;14.40;99.90;;;;;;5055605;28;20385;-77
2023/11/02 10:15:25;;;;;;;10.23;4.55;;;14.40;99.90;;;;;;5055032;28;20025;-76
2023/11/02 10:17:51;;;;;;;9.82;4.32;;;14.40;99.90;;;;;;5055536;28;20557;-76
2023/11/02 10:20:18;;;;;;;11.98;4.05;;;14.40;99.90;;;;;;5055792;28;20108;-76
2023/11/02 10:22:57;;;;;;;10.18;3.60;;;14.40;99.90;;;;;;5055367;28;20037;-76
2023/11/02 10:25:22;;;;;;;6.65;3.30;;;14.40;99.90;;;;;;5055675;28;20033;-75
2023/11/02 10:27:50;;;;;;;12.73;3.63;;;14.50;99.90;;;;;;5055715;28;20091;-76
2023/11/02 10:30:19;;;;;;;9.60;2.70;;;14.50;99.90;;;;;;5055619;28;20029;-78
2023/11/02 10:32:46;;;;;;;12.63;3.55;;;14.50;99.90;;;;;;5055844;28;20117;-77
2023/11/02 10:35:12;;;;;;;16.95;3.30;;;14.50;99.90;;;;;;5037337;28;20042;-80
2023/11/02 10:37:39;;;;;;;14.68;4.05;;;14.60;99.90;;;;;;5035843;28;20040;-79
2023/11/02 10:40:06;;;;;;;8.02;3.40;;;14.60;99.90;;;;;;5033821;28;20021;-80
2023/11/02 10:42:32;;;;;;;10.68;3.80;;;14.60;99.90;;;;;;5034927;28;20072;-79
2023/11/02 10:45:04;;;;;;;14.02;4.13;;;14.70;99.90;;;;;;5034046;28;20057;-79
2023/11/02 10:47:30;;;;;;;;;;;14.70;99.90;;;;;;5035852;28;20498;-81
2023/11/02 10:50:02;;;;;;;11.35;1.60;;;14.70;99.90;;;;;;5035068;28;19905;-80
2023/11/02 10:52:45;;;;;;;8.82;2.42;;;14.70;99.90;;;;;;5034646;28;20058;-80
2023/11/02 10:55:39;;;;;;;9.63;2.53;;;14.70;99.90;;;;;;5033908;28;20022;-79
2023/11/02 10:58:09;;;;;;;7.88;2.13;;;14.80;99.90;;;;;;5034890;28;20025;-79
2023/11/02 11:00:42;;;;;;;6.28;2.20;;;14.80;99.90;;;;;;5034795;28;20018;-81
2023/11/02 11:03:15;;;;;;;11.85;4.53;;;14.90;99.90;;;;;;5035067;28;20035;-79
2023/11/02 11:05:42;;;;;;;7.75;1.90;;;14.90;99.90;;;;;;5034288;28;20017;-81
2023/11/02 11:08:09;;;;;;;8.95;1.20;;;15.00;99.90;;;;;;5034459;28;20052;-78
2023/11/02 11:10:37;;;;;;;8.20;1.77;;;15.00;99.90;;;;;;5034485;28;20021;-80
2023/11/02 11:13:09;;;;;;;6.43;1.20;;;15.00;99.90;;;;;;5034611;28;20052;-80
2023/11/02 11:15:36;;;;;;;12.07;1.58;;;15.10;99.90;;;;;;5033706;28;20029;-81
2023/11/02 11:18:07;;;;;;;8.52;1.48;;;15.10;99.90;;;;;;5033598;28;20124;-79
2023/11/02 11:20:33;;;;;;;7.57;2.00;;;15.20;99.90;;;;;;5034461;28;20036;-79
2023/11/02 11:22:59;;;;;;;9.52;2.50;;;15.20;99.90;;;;;;5033405;28;20037;-79
2023/11/02 11:25:26;;;;;;;8.50;2.53;;;15.20;99.90;;;;;;5034440;28;20029;-79
2023/11/02 11:27:52;;;;;;;9.95;2.78;;;15.20;99.90;;;;;;5034738;28;20112;-79
2023/11/02 11:30:24;;;;;;;9.48;2.60;;;15.20;99.90;;;;;;5034655;28;20060;-77
2023/11/02 11:32:49;;;;;;;5.82;1.13;;;15.20;99.90;;;;;;5034682;28;20428;-79
2023/11/02 11:35:19;;;;;;;5.45;1.25;;;15.20;99.90;;;;;;5034448;28;20053;-79
2023/11/02 11:40:21;;;;;;;10.10;1.45;;;15.20;99.90;;;;;;5034274;28;20025;-79
2023/11/02 11:43:01;;;;;;;8.02;0.98;;;15.30;99.90;;;;;;5034467;28;20030;-79
2023/11/02 11:45:34;;;;;;;7.47;1.30;;;15.30;99.90;;;;;;5034656;28;20022;-79
2023/11/02 11:48:07;;;;;;;9.32;1.27;;;15.30;99.90;;;;;;5034387;28;20073;-79
2023/11/02 11:50:49;;;;;;;12.20;1.20;;;15.30;99.90;;;;;;5033958;28;20084;-79
2023/11/02 11:53:18;;;;;;;9.25;1.40;;;15.40;99.90;;;;;;5033970;28;20052;-79
2023/11/02 11:55:45;;;;;;;5.97;1.40;;;15.40;99.90;;;;;;5034255;28;20358;-79
2023/11/02 11:58:12;;;;;;;8.50;1.35;;;15.40;99.90;;;;;;5033915;28;20097;-79
2023/11/02 12:00:53;;;;;;;8.35;1.25;;;15.40;99.90;;;;;;5033889;28;20105;-80
2023/11/02 12:03:34;;;;;;;6.85;1.27;;;15.40;99.90;;;;;;5033917;28;20437;-79
2023/11/02 12:06:00;;;;;;;8.57;1.23;;;15.40;99.90;;;;;;5034209;28;20021;-82
2023/11/02 12:08:27;;;;;;;8.85;1.40;;;15.40;99.90;;;;;;5033260;28;20041;-75
2023/11/02 12:10:56;;;;;;;8.60;1.30;;;15.50;99.90;;;;;;5033288;28;20438;-80
2023/11/02 12:13:22;;;;;;;10.52;1.52;;;15.50;99.90;;;;;;5033480;28;20503;-81
2023/11/02 12:15:58;;;;;;;15.35;2.15;;;15.50;99.90;;;;;;5033769;28;20100;-82
2023/11/02 12:18:36;;;;;;;11.80;2.22;;;15.50;99.90;;;;;;5033938;28;20408;-81
2023/11/02 12:21:17;;;;;;;8.85;1.60;;;15.50;99.90;;;;;;5033898;28;20452;-79
2023/11/02 12:23:44;;;;;;;10.35;1.00;;;15.50;99.90;;;;;;5033631;28;20037;-80
2023/11/02 12:26:10;;;;;;;7.03;1.23;;;15.50;99.90;;;;;;5033730;28;20419;-79
2023/11/02 12:28:44;;;;;;;8.05;1.10;;;15.50;99.90;;;;;;5033513;28;20021;-79
2023/11/02 12:31:10;;;;;;;10.30;1.27;;;15.50;99.90;;;;;;5034038;28;20426;-79
2023/11/02 12:33:37;;;;;;;10.73;1.40;;;15.60;99.90;;;;;;5033954;28;20033;-79
2023/11/02 12:36:04;;;;;;;10.80;1.20;;;15.60;99.90;;;;;;5033872;28;20363;-79
2023/11/02 12:38:49;;;;;;;8.05;1.42;;;15.60;99.90;;;;;;5033843;28;20022;-79
2023/11/02 12:41:35;;;;;;;7.55;1.20;;;15.60;99.90;;;;;;5033936;28;20430;-79
2023/11/02 12:44:06;;;;;;;10.27;1.75;;;15.60;99.90;;;;;;5033691;28;20037;-79
2023/11/02 12:46:34;;;;;;;7.00;1.20;;;15.60;99.90;;;;;;5033875;28;20049;-79
2023/11/02 12:49:25;;;;;;;6.53;1.48;;;15.50;99.90;;;;;;5033711;28;20021;-79
2023/11/02 12:51:57;;;;;;;11.07;1.55;;;15.50;99.90;;;;;;5033592;28;20390;-79
2023/11/02 12:54:26;;;;;;;7.70;1.38;;;15.60;99.90;;;;;;5033210;28;20040;-79
2023/11/02 12:56:54;;;;;;;7.90;1.15;;;15.60;99.90;;;;;;5033477;28;20025;-79
2023/11/02 12:59:25;;;;;;;5.75;1.25;;;15.50;99.90;;;;;;5033649;28;20390;-80
2023/11/02 13:01:57;;;;;;;8.32;1.48;;;15.50;99.90;;;;;;5029958;28;20079;-79
2023/11/02 13:04:49;;;;;;;8.65;1.20;;;15.60;99.90;;;;;;5030734;28;20520;-78
2023/11/02 13:07:25;;;;;;;7.47;1.77;;;15.60;99.90;;;;;;5031935;28;20029;-77
2023/11/02 13:10:10;;;;;;;7.85;1.52;;;15.50;99.90;;;;;;5032469;28;20080;-78
2023/11/02 13:12:39;;;;;;;8.98;1.10;;;15.50;99.90;;;;;;5032757;28;20052;-78